createdAt,value
2019-01-30T00:00:43.329Z,-3.20
2019-01-30T00:03:12.266Z,-3.20
2019-01-30T00:05:41.112Z,-3.20
2019-01-30T00:08:10.034Z,-3.20
2019-01-30T00:10:38.916Z,-3.20
2019-01-30T00:13:07.875Z,-3.10
2019-01-30T00:15:36.851Z,-3.20
2019-01-30T00:18:06.346Z,-3.30
2019-01-30T00:20:35.215Z,-3.30
2019-01-30T00:23:04.154Z,-3.30
2019-01-30T00:25:33.091Z,-3.40
2019-01-30T00:28:02.079Z,-3.40
2019-01-30T00:30:31.271Z,-3.40
2019-01-30T00:33:00.383Z,-3.50
2019-01-30T00:35:29.267Z,-3.50
2019-01-30T00:37:58.569Z,-3.50
2019-01-30T00:40:27.682Z,-3.50
2019-01-30T00:42:56.542Z,-3.60
2019-01-30T00:45:25.519Z,-3.70
2019-01-30T00:47:54.435Z,-3.70
2019-01-30T00:50:23.399Z,-3.70
2019-01-30T00:52:55.355Z,-3.70
2019-01-30T00:55:24.258Z,-3.80
2019-01-30T00:57:53.244Z,-3.80
2019-01-30T01:00:23.243Z,-3.80
2019-01-30T01:02:52.196Z,-3.80
2019-01-30T01:05:21.297Z,-3.80
2019-01-30T01:07:50.648Z,-3.70
2019-01-30T01:10:20.000Z,-3.70
2019-01-30T01:12:49.073Z,-3.70
2019-01-30T01:15:18.044Z,-3.70
2019-01-30T01:17:47.022Z,-3.70
2019-01-30T01:20:16.058Z,-3.70
2019-01-30T01:22:44.950Z,-3.70
2019-01-30T01:25:15.848Z,-3.70
2019-01-30T01:27:45.187Z,-3.70
2019-01-30T01:30:24.825Z,-3.70
2019-01-30T01:32:47.756Z,-3.70
2019-01-30T01:35:16.672Z,-3.80
2019-01-30T01:37:45.766Z,-3.80
2019-01-30T01:40:15.284Z,-3.80
2019-01-30T01:42:44.247Z,-3.80
2019-01-30T01:45:18.549Z,-3.70
2019-01-30T01:47:47.473Z,-3.70
2019-01-30T01:50:19.562Z,-3.70
2019-01-30T01:52:48.552Z,-3.80
2019-01-30T01:55:17.511Z,-3.80
2019-01-30T01:57:46.378Z,-3.90
2019-01-30T02:00:20.488Z,-3.80
2019-01-30T02:02:49.400Z,-3.80
2019-01-30T02:05:20.126Z,-3.80
2019-01-30T02:07:49.126Z,-3.80
2019-01-30T02:10:27.080Z,-3.80
2019-01-30T02:12:56.145Z,-3.90
2019-01-30T02:15:25.207Z,-3.90
2019-01-30T02:17:54.527Z,-3.90
2019-01-30T02:20:26.231Z,-3.90
2019-01-30T02:22:55.241Z,-3.90
2019-01-30T02:25:24.263Z,-3.90
2019-01-30T02:27:53.883Z,-3.90
2019-01-30T02:30:25.549Z,-3.90
2019-01-30T02:32:55.190Z,-3.90
2019-01-30T02:35:25.436Z,-3.90
2019-01-30T02:37:54.684Z,-3.90
2019-01-30T02:40:26.214Z,-3.90
2019-01-30T02:42:55.524Z,-3.90
2019-01-30T02:45:25.929Z,-3.90
2019-01-30T02:47:55.221Z,-3.90
2019-01-30T02:50:24.256Z,-3.90
2019-01-30T02:52:53.368Z,-3.80
2019-01-30T02:55:22.886Z,-3.80
2019-01-30T02:57:51.968Z,-3.80
2019-01-30T03:00:24.362Z,-3.90
2019-01-30T03:02:53.351Z,-4.00
2019-01-30T03:05:22.411Z,-4.00
2019-01-30T03:07:51.416Z,-4.00
2019-01-30T03:10:20.441Z,-4.00
2019-01-30T03:12:49.470Z,-4.00
2019-01-30T03:15:18.655Z,-4.00
2019-01-30T03:17:47.779Z,-4.00
2019-01-30T03:20:24.817Z,-4.10
2019-01-30T03:22:53.858Z,-4.10
2019-01-30T03:25:23.861Z,-4.10
2019-01-30T03:27:52.910Z,-4.10
2019-01-30T03:30:26.984Z,-4.10
2019-01-30T03:32:56.011Z,-4.20
2019-01-30T03:35:25.090Z,-4.20
2019-01-30T03:37:54.008Z,-4.20
2019-01-30T03:40:23.544Z,-4.20
2019-01-30T03:42:52.559Z,-4.20
2019-01-30T03:45:22.476Z,-4.20
2019-01-30T03:47:51.632Z,-4.20
2019-01-30T03:50:20.660Z,-4.20
2019-01-30T03:52:49.702Z,-4.30
2019-01-30T03:55:18.828Z,-4.30
2019-01-30T03:57:48.042Z,-4.30
2019-01-30T04:00:19.655Z,-4.30
2019-01-30T04:02:48.720Z,-4.30
2019-01-30T04:05:17.737Z,-4.30
2019-01-30T04:07:46.801Z,-4.30
2019-01-30T04:10:18.323Z,-4.30
2019-01-30T04:12:47.315Z,-4.30
2019-01-30T04:15:16.438Z,-4.30
2019-01-30T04:17:45.853Z,-4.30
2019-01-30T04:20:16.687Z,-4.30
2019-01-30T04:22:45.696Z,-4.40
2019-01-30T04:25:14.805Z,-4.40
2019-01-30T04:27:44.140Z,-4.40
2019-01-30T04:30:16.144Z,-4.40
2019-01-30T04:32:45.161Z,-4.40
2019-01-30T04:35:14.202Z,-4.40
2019-01-30T04:37:43.233Z,-4.40
2019-01-30T04:40:14.849Z,-4.50
2019-01-30T04:42:44.412Z,-4.50
2019-01-30T04:45:16.319Z,-4.50
2019-01-30T04:47:45.404Z,-4.50
2019-01-30T04:50:14.568Z,-4.50
2019-01-30T04:52:43.649Z,-4.50
2019-01-30T04:55:12.760Z,-4.50
2019-01-30T04:57:41.947Z,-4.50
2019-01-30T05:00:13.166Z,-4.40
2019-01-30T05:02:42.255Z,-4.50
2019-01-30T05:05:11.621Z,-4.50
2019-01-30T05:07:40.609Z,-4.50
2019-01-30T05:10:10.816Z,-4.50
2019-01-30T05:12:39.869Z,-4.50
2019-01-30T05:15:12.057Z,-4.50
2019-01-30T05:17:41.045Z,-4.50
2019-01-30T05:20:11.456Z,-4.50
2019-01-30T05:22:40.464Z,-4.60
2019-01-30T05:25:09.676Z,-4.60
2019-01-30T05:27:38.785Z,-4.70
2019-01-30T05:30:12.197Z,-4.70
2019-01-30T05:32:41.320Z,-4.70
2019-01-30T05:35:13.133Z,-4.60
2019-01-30T05:37:42.117Z,-4.60
2019-01-30T05:40:13.425Z,-4.60
2019-01-30T05:42:42.450Z,-4.50
2019-01-30T05:45:14.331Z,-4.50
2019-01-30T05:47:45.598Z,-4.50
2019-01-30T05:50:14.811Z,-4.50
2019-01-30T05:52:43.939Z,-4.40
2019-01-30T05:55:13.584Z,-4.40
2019-01-30T05:57:42.614Z,-4.30
2019-01-30T06:00:34.140Z,-4.30
2019-01-30T06:03:03.538Z,-4.20
2019-01-30T06:05:32.546Z,-4.20
2019-01-30T06:08:01.620Z,-4.10
2019-01-30T06:10:30.698Z,-4.00
2019-01-30T06:12:59.589Z,-4.00
2019-01-30T06:15:28.653Z,-3.80
2019-01-30T06:17:57.734Z,-3.80
2019-01-30T06:20:27.660Z,-3.70
2019-01-30T06:22:57.057Z,-3.70
2019-01-30T06:25:26.086Z,-3.60
2019-01-30T06:27:55.173Z,-3.50
2019-01-30T06:30:24.335Z,-3.50
2019-01-30T06:32:53.456Z,-3.40
2019-01-30T06:35:22.481Z,-3.50
2019-01-30T06:37:51.697Z,-3.50
2019-01-30T06:40:29.472Z,-3.40
2019-01-30T06:42:58.676Z,-3.40
2019-01-30T06:45:27.766Z,-3.40
2019-01-30T06:47:56.768Z,-3.30
2019-01-30T06:50:25.866Z,-3.30
2019-01-30T06:52:55.006Z,-3.20
2019-01-30T06:55:24.025Z,-3.20
2019-01-30T06:57:53.096Z,-3.20
2019-01-30T07:00:25.021Z,-3.20
2019-01-30T07:02:54.605Z,-3.20
2019-01-30T07:05:23.642Z,-3.20
2019-01-30T07:07:52.649Z,-3.10
2019-01-30T07:10:24.053Z,-3.10
2019-01-30T07:12:53.152Z,-3.00
2019-01-30T07:15:22.289Z,-3.00
2019-01-30T07:17:51.633Z,-2.90
2019-01-30T07:20:20.765Z,-2.90
2019-01-30T07:22:52.361Z,-2.90
2019-01-30T07:25:22.028Z,-2.80
2019-01-30T07:27:51.132Z,-2.80
2019-01-30T07:30:31.480Z,-2.70
2019-01-30T07:33:00.532Z,-2.70
2019-01-30T07:35:29.558Z,-2.60
2019-01-30T07:37:58.934Z,-2.50
2019-01-30T07:40:28.154Z,-2.40
2019-01-30T07:42:57.156Z,-2.40
2019-01-30T07:45:27.943Z,-2.40
2019-01-30T07:47:56.952Z,-2.40
2019-01-30T07:50:25.963Z,-2.40
2019-01-30T07:52:54.943Z,-2.40
2019-01-30T07:55:23.971Z,-2.30
2019-01-30T07:57:52.966Z,-2.40
2019-01-30T08:00:24.248Z,-2.30
2019-01-30T08:02:53.847Z,-2.20
2019-01-30T08:05:23.336Z,-2.10
2019-01-30T08:07:52.422Z,-2.10
2019-01-30T08:10:21.427Z,-2.10
2019-01-30T08:12:50.432Z,-2.10
2019-01-30T08:15:19.636Z,-2.10
2019-01-30T08:17:50.544Z,-2.00
2019-01-30T08:20:20.814Z,-2.10
2019-01-30T08:22:50.470Z,-2.10
2019-01-30T08:25:21.858Z,-2.10
2019-01-30T08:27:54.282Z,-2.10
2019-01-30T08:30:30.061Z,-2.00
2019-01-30T08:33:04.605Z,-2.00
2019-01-30T08:35:33.039Z,-1.90
2019-01-30T08:38:02.142Z,-1.80
2019-01-30T08:40:31.685Z,-1.70
2019-01-30T08:43:00.721Z,-1.60
2019-01-30T08:45:31.325Z,-1.60
2019-01-30T08:48:00.837Z,-1.60
2019-01-30T08:50:30.006Z,-1.60
2019-01-30T08:52:59.013Z,-1.50
2019-01-30T08:55:28.020Z,-1.50
2019-01-30T08:57:57.116Z,-1.40
2019-01-30T09:00:27.050Z,-1.30
2019-01-30T09:02:56.402Z,-1.30
2019-01-30T09:05:25.869Z,-1.20
2019-01-30T09:07:55.192Z,-1.10
2019-01-30T09:10:25.282Z,-1.00
2019-01-30T09:12:54.322Z,-0.90
2019-01-30T09:15:24.772Z,-1.00
2019-01-30T09:17:53.826Z,-1.00
2019-01-30T09:20:23.817Z,-0.90
2019-01-30T09:22:53.086Z,-0.80
2019-01-30T09:25:24.222Z,-0.70
2019-01-30T09:27:53.295Z,-0.60
2019-01-30T09:30:30.712Z,-0.70
2019-01-30T09:32:59.843Z,-0.60
2019-01-30T09:35:29.253Z,-0.50
2019-01-30T09:37:58.260Z,-0.60
2019-01-30T09:40:27.316Z,-0.60
2019-01-30T09:42:56.393Z,-0.40
2019-01-30T09:45:25.750Z,-0.30
2019-01-30T09:47:54.948Z,-0.20
2019-01-30T09:50:24.206Z,-0.10
2019-01-30T09:52:53.469Z,0.00
2019-01-30T09:55:22.741Z,0.00
2019-01-30T09:57:52.108Z,0.00
2019-01-30T10:00:28.268Z,-0.20
2019-01-30T10:02:57.265Z,-0.20
2019-01-30T10:05:26.328Z,-0.20
2019-01-30T10:07:55.527Z,-0.30
2019-01-30T10:10:27.289Z,-0.30
2019-01-30T10:12:56.308Z,-0.20
2019-01-30T10:15:27.953Z,-0.20
2019-01-30T10:17:56.885Z,-0.30
2019-01-30T10:20:26.737Z,-0.10
2019-01-30T10:22:55.814Z,0.10
2019-01-30T10:25:24.941Z,0.10
2019-01-30T10:27:53.973Z,0.30
2019-01-30T10:30:31.853Z,0.50
2019-01-30T10:33:00.882Z,0.60
2019-01-30T10:35:30.098Z,0.50
2019-01-30T10:37:59.172Z,0.50
2019-01-30T10:40:28.177Z,0.50
2019-01-30T10:42:57.599Z,0.50
2019-01-30T10:45:26.747Z,0.40
2019-01-30T10:47:55.801Z,0.30
2019-01-30T10:50:26.445Z,0.30
2019-01-30T10:52:55.469Z,0.50
2019-01-30T10:55:26.255Z,0.80
2019-01-30T10:57:57.300Z,1.10
2019-01-30T11:00:29.271Z,1.30
2019-01-30T11:02:58.302Z,1.60
2019-01-30T11:05:27.317Z,1.60
2019-01-30T11:07:56.376Z,1.60
2019-01-30T11:10:25.498Z,1.40
2019-01-30T11:12:54.434Z,1.20
2019-01-30T11:15:25.074Z,1.10
2019-01-30T11:17:54.097Z,1.20
2019-01-30T11:20:23.092Z,1.00
2019-01-30T11:22:53.687Z,1.00
2019-01-30T11:25:25.849Z,0.90
2019-01-30T11:27:55.257Z,0.90
2019-01-30T11:30:24.297Z,0.90
2019-01-30T11:32:55.403Z,0.80
2019-01-30T11:35:24.013Z,0.90
2019-01-30T11:37:53.253Z,0.90
2019-01-30T11:40:22.640Z,0.90
2019-01-30T11:42:51.659Z,0.90
2019-01-30T11:45:23.862Z,0.90
2019-01-30T11:47:52.888Z,0.90
2019-01-30T11:50:21.931Z,1.00
2019-01-30T11:52:50.968Z,1.30
2019-01-30T11:55:20.000Z,1.50
2019-01-30T11:57:49.062Z,1.80
2019-01-30T12:00:33.447Z,2.00
2019-01-30T12:03:02.470Z,2.10
2019-01-30T12:05:31.480Z,2.30
2019-01-30T12:08:00.926Z,2.40
2019-01-30T12:10:29.930Z,2.60
2019-01-30T12:12:58.934Z,2.80
2019-01-30T12:15:27.992Z,2.70
2019-01-30T12:17:57.033Z,2.70
2019-01-30T12:20:26.080Z,2.40
2019-01-30T12:22:55.121Z,2.40
2019-01-30T12:25:24.532Z,2.50
2019-01-30T12:27:53.546Z,2.70
2019-01-30T12:30:24.222Z,3.00
2019-01-30T12:32:53.247Z,3.30
2019-01-30T12:35:22.836Z,3.30
2019-01-30T12:37:51.869Z,3.40
2019-01-30T12:40:21.369Z,3.30
2019-01-30T12:42:50.814Z,3.20
2019-01-30T12:45:22.712Z,3.40
2019-01-30T12:47:51.722Z,3.70
2019-01-30T12:50:20.762Z,4.10
2019-01-30T12:52:49.849Z,4.00
2019-01-30T12:55:19.394Z,4.00
2019-01-30T12:57:48.440Z,3.90
2019-01-30T13:00:19.520Z,3.90
2019-01-30T13:02:48.847Z,4.00
2019-01-30T13:05:18.897Z,4.00
2019-01-30T13:07:47.949Z,4.30
2019-01-30T13:10:16.956Z,4.30
2019-01-30T13:12:45.954Z,4.20
2019-01-30T13:15:16.867Z,4.20
2019-01-30T13:17:46.758Z,4.30
2019-01-30T13:20:17.877Z,4.50
2019-01-30T13:22:46.941Z,4.90
2019-01-30T13:25:18.723Z,5.20
2019-01-30T13:27:47.669Z,4.90
2019-01-30T13:30:22.297Z,4.60
2019-01-30T13:32:51.453Z,4.80
2019-01-30T13:35:23.788Z,5.00
2019-01-30T13:37:52.813Z,5.10
2019-01-30T13:40:24.977Z,5.10
2019-01-30T13:42:53.949Z,5.10
2019-01-30T13:45:23.022Z,5.20
2019-01-30T13:47:52.093Z,5.30
2019-01-30T13:50:23.044Z,5.50
2019-01-30T13:52:52.103Z,5.30
2019-01-30T13:55:21.113Z,5.10
2019-01-30T13:57:50.543Z,4.70
2019-01-30T14:00:23.298Z,4.30
2019-01-30T14:02:52.324Z,4.10
2019-01-30T14:05:21.333Z,3.80
2019-01-30T14:07:51.166Z,3.60
2019-01-30T14:10:20.289Z,3.50
2019-01-30T14:12:49.703Z,3.40
2019-01-30T14:15:20.728Z,3.20
2019-01-30T14:17:49.769Z,3.10
2019-01-30T14:20:18.843Z,3.10
2019-01-30T14:22:49.526Z,3.00
2019-01-30T14:25:19.306Z,2.90
2019-01-30T14:27:48.384Z,2.80
2019-01-30T14:30:22.969Z,2.70
2019-01-30T14:32:52.045Z,2.70
2019-01-30T14:35:21.810Z,2.80
2019-01-30T14:37:50.842Z,2.90
2019-01-30T14:40:20.680Z,3.00
2019-01-30T14:42:49.953Z,3.00
2019-01-30T14:45:19.047Z,2.90
2019-01-30T14:47:49.092Z,3.00
2019-01-30T14:50:20.082Z,2.90
2019-01-30T14:52:49.195Z,2.90
2019-01-30T14:55:19.054Z,2.80
2019-01-30T14:57:48.740Z,2.90
2019-01-30T15:00:19.777Z,2.90
2019-01-30T15:02:48.838Z,3.10
2019-01-30T15:05:22.250Z,3.20
2019-01-30T15:07:48.967Z,3.30
2019-01-30T15:10:19.132Z,3.50
2019-01-30T15:12:48.198Z,3.60
2019-01-30T15:15:19.049Z,3.60
2019-01-30T15:17:47.968Z,3.60
2019-01-30T15:20:21.822Z,3.60
2019-01-30T15:22:50.892Z,3.60
2019-01-30T15:25:20.952Z,3.60
2019-01-30T15:27:50.311Z,3.70
2019-01-30T15:30:30.907Z,3.60
2019-01-30T15:32:59.961Z,3.60
2019-01-30T15:35:33.555Z,3.70
2019-01-30T15:38:00.680Z,3.60
2019-01-30T15:40:29.848Z,3.60
2019-01-30T15:42:58.840Z,3.60
2019-01-30T15:45:28.036Z,3.60
2019-01-30T15:47:57.043Z,3.60
2019-01-30T15:50:27.887Z,3.60
2019-01-30T15:52:58.295Z,3.60
2019-01-30T15:55:27.483Z,3.60
2019-01-30T15:58:02.133Z,3.60
2019-01-30T16:00:34.124Z,3.60
2019-01-30T16:03:03.104Z,3.60
2019-01-30T16:05:32.097Z,3.60
2019-01-30T16:08:01.035Z,3.50
2019-01-30T16:10:30.040Z,3.50
2019-01-30T16:12:58.880Z,3.50
2019-01-30T16:15:30.944Z,3.50
2019-01-30T16:17:59.839Z,3.50
2019-01-30T16:20:28.833Z,3.50
2019-01-30T16:22:57.873Z,3.50
2019-01-30T16:25:26.887Z,3.40
2019-01-30T16:27:55.869Z,3.40
2019-01-30T16:30:25.455Z,3.40
2019-01-30T16:32:54.476Z,3.30
2019-01-30T16:35:25.849Z,3.20
2019-01-30T16:37:54.980Z,3.20
2019-01-30T16:40:24.016Z,3.10
2019-01-30T16:42:54.430Z,3.10
2019-01-30T16:45:25.428Z,3.00
2019-01-30T16:47:54.476Z,3.00
2019-01-30T16:50:23.468Z,3.00
2019-01-30T16:52:52.817Z,3.00
2019-01-30T16:55:22.632Z,3.00
2019-01-30T16:57:51.628Z,3.00
2019-01-30T17:00:26.021Z,3.00
2019-01-30T17:02:55.115Z,2.90
2019-01-30T17:05:24.305Z,2.90
2019-01-30T17:07:53.308Z,2.80
2019-01-30T17:10:22.311Z,2.90
2019-01-30T17:12:51.305Z,2.90
2019-01-30T17:15:22.719Z,2.90
2019-01-30T17:17:51.716Z,2.90
2019-01-30T17:20:22.827Z,2.90
2019-01-30T17:22:51.876Z,2.90
2019-01-30T17:25:21.191Z,3.00
2019-01-30T17:27:50.208Z,3.00
2019-01-30T17:30:24.967Z,3.00
2019-01-30T17:32:53.967Z,3.00
2019-01-30T17:35:23.136Z,2.90
2019-01-30T17:37:52.188Z,2.90
2019-01-30T17:40:21.620Z,2.90
2019-01-30T17:42:50.619Z,2.90
2019-01-30T17:45:19.652Z,3.00
2019-01-30T17:47:48.652Z,3.00
2019-01-30T17:50:20.585Z,3.00
2019-01-30T17:52:49.607Z,3.00
2019-01-30T17:55:18.549Z,2.90
2019-01-30T17:57:47.571Z,2.90
2019-01-30T18:00:28.756Z,2.90
2019-01-30T18:02:57.760Z,2.90
2019-01-30T18:05:26.756Z,2.90
2019-01-30T18:07:55.764Z,2.90
2019-01-30T18:10:24.782Z,2.80
2019-01-30T18:12:53.794Z,2.80
2019-01-30T18:15:22.794Z,2.80
2019-01-30T18:17:54.256Z,2.80
2019-01-30T18:20:22.496Z,2.80
2019-01-30T18:22:51.439Z,2.80
2019-01-30T18:25:20.468Z,2.80
2019-01-30T18:27:49.578Z,2.80
2019-01-30T18:30:18.700Z,2.90
2019-01-30T18:32:47.818Z,2.90
2019-01-30T18:35:16.960Z,2.90
2019-01-30T18:37:46.193Z,2.80
2019-01-30T18:40:17.462Z,2.80
2019-01-30T18:42:46.530Z,2.80
2019-01-30T18:45:21.064Z,2.80
2019-01-30T18:47:50.060Z,2.80
2019-01-30T18:50:21.123Z,2.80
2019-01-30T18:52:50.125Z,2.80
2019-01-30T18:55:19.215Z,2.70
2019-01-30T18:57:48.820Z,2.70
2019-01-30T19:00:30.165Z,2.70
2019-01-30T19:03:00.619Z,2.70
2019-01-30T19:05:30.731Z,2.70
2019-01-30T19:07:59.775Z,2.70
2019-01-30T19:10:28.796Z,2.70
2019-01-30T19:12:57.952Z,2.70
2019-01-30T19:15:27.036Z,2.70
2019-01-30T19:17:56.153Z,2.70
2019-01-30T19:20:28.061Z,2.70
2019-01-30T19:22:56.965Z,2.70
2019-01-30T19:25:25.911Z,2.70
2019-01-30T19:27:56.135Z,2.70
2019-01-30T19:30:27.432Z,2.60
2019-01-30T19:32:56.425Z,2.70
2019-01-30T19:35:25.465Z,2.60
2019-01-30T19:37:54.844Z,2.60
2019-01-30T19:40:24.040Z,2.60
2019-01-30T19:42:53.128Z,2.60
2019-01-30T19:45:23.841Z,2.60
2019-01-30T19:47:52.851Z,2.60
2019-01-30T19:50:23.719Z,2.60
2019-01-30T19:52:53.051Z,2.60
2019-01-30T19:55:22.027Z,2.60
2019-01-30T19:57:51.167Z,2.50
2019-01-30T20:00:28.723Z,2.50
2019-01-30T20:02:57.727Z,2.50
2019-01-30T20:05:27.036Z,2.50
2019-01-30T20:07:56.019Z,2.60
2019-01-30T20:10:30.671Z,2.50
2019-01-30T20:12:59.674Z,2.50
2019-01-30T20:15:28.869Z,2.50
2019-01-30T20:17:57.908Z,2.50
2019-01-30T20:20:26.920Z,2.50
2019-01-30T20:22:55.926Z,2.50
2019-01-30T20:25:27.579Z,2.50
2019-01-30T20:27:56.525Z,2.40
2019-01-30T20:30:27.216Z,2.40
2019-01-30T20:32:56.356Z,2.40
2019-01-30T20:35:25.369Z,2.40
2019-01-30T20:37:54.370Z,2.40
2019-01-30T20:40:25.521Z,2.40
2019-01-30T20:42:55.910Z,2.40
2019-01-30T20:45:33.527Z,2.40
2019-01-30T20:47:56.084Z,2.40
2019-01-30T20:50:27.155Z,2.40
2019-01-30T20:52:56.307Z,2.30
2019-01-30T20:55:27.648Z,2.30
2019-01-30T20:57:56.552Z,2.30
2019-01-30T21:00:35.181Z,2.30
2019-01-30T21:03:04.782Z,2.30
2019-01-30T21:05:33.818Z,2.20
2019-01-30T21:08:03.231Z,2.20
2019-01-30T21:10:34.605Z,2.20
2019-01-30T21:13:03.823Z,2.20
2019-01-30T21:15:32.786Z,2.20
2019-01-30T21:18:01.789Z,2.10
2019-01-30T21:20:30.763Z,2.10
2019-01-30T21:22:59.756Z,2.10
2019-01-30T21:25:28.828Z,2.10
2019-01-30T21:27:57.747Z,2.10
2019-01-30T21:30:29.056Z,2.00
2019-01-30T21:32:58.043Z,2.00
2019-01-30T21:35:27.048Z,2.00
2019-01-30T21:37:56.053Z,1.90
2019-01-30T21:40:25.035Z,1.90
2019-01-30T21:42:54.037Z,1.80
2019-01-30T21:45:23.925Z,1.80
2019-01-30T21:47:52.859Z,1.80
2019-01-30T21:50:21.904Z,1.80
2019-01-30T21:52:50.991Z,1.70
2019-01-30T21:55:22.448Z,1.60
2019-01-30T21:57:51.568Z,1.50
2019-01-30T22:00:25.168Z,1.50
2019-01-30T22:02:54.199Z,1.30
2019-01-30T22:05:23.288Z,1.20
2019-01-30T22:08:00.600Z,1.10
2019-01-30T22:10:25.138Z,1.20
2019-01-30T22:12:54.384Z,1.00
2019-01-30T22:15:23.506Z,0.90
2019-01-30T22:17:52.520Z,0.80
2019-01-30T22:20:23.539Z,0.70
2019-01-30T22:22:52.660Z,0.70
2019-01-30T22:25:21.975Z,0.60
2019-01-30T22:27:51.030Z,0.50
2019-01-30T22:30:31.481Z,0.50
2019-01-30T22:33:00.508Z,0.50
2019-01-30T22:35:29.557Z,0.40
2019-01-30T22:37:58.568Z,0.40
2019-01-30T22:40:27.589Z,0.40
2019-01-30T22:42:56.681Z,0.40
2019-01-30T22:45:25.684Z,0.40
2019-01-30T22:47:54.672Z,0.40
2019-01-30T22:50:23.786Z,0.30
2019-01-30T22:52:52.751Z,0.20
2019-01-30T22:55:22.817Z,0.10
2019-01-30T22:57:52.083Z,0.00
2019-01-30T23:00:30.837Z,0.00
2019-01-30T23:03:00.018Z,0.00
2019-01-30T23:06:06.176Z,-0.10
2019-01-30T23:08:45.868Z,-0.20
2019-01-30T23:12:04.324Z,-0.20
2019-01-30T23:15:04.751Z,-0.20
2019-01-30T23:18:17.956Z,-0.20
2019-01-30T23:20:54.900Z,-0.20
2019-01-30T23:23:54.246Z,-0.30
2019-01-30T23:26:29.204Z,-0.30
2019-01-30T23:29:33.467Z,-0.40
2019-01-30T23:32:33.268Z,-0.40
2019-01-30T23:35:23.742Z,-0.40
2019-01-30T23:38:15.905Z,-0.40
2019-01-30T23:41:25.516Z,-0.50
2019-01-30T23:44:48.478Z,-0.60
2019-01-30T23:47:56.038Z,-0.60
2019-01-30T23:51:12.195Z,-0.70
2019-01-30T23:54:21.762Z,-0.80
2019-01-30T23:57:29.347Z,-0.90
